Data for 12/08/2016

Time Sea-Level Adjusted Pressure Absolute Pressure Temperature Relative Humidity Dew Point   
(mb) (inHg) (mb) (inHg) (C) (F) (%) (C) (F)
00:05 1028 30.36 857 25.31 -15 5 73 -18.8 -1.9
00:10 1028 30.36 857 25.31 -14.9 5.2 73 -18.8 -1.8
00:15 1028 30.36 857 25.31 -15 5 72 -18.9 -2.1
00:20 1028 30.36 857 25.31 -15 5 72 -18.9 -2.1
00:25 1028 30.36 857 25.31 -15.1 4.9 72 -19.1 -2.3
00:30 1028 30.36 857 25.31 -15.1 4.8 72 -19.1 -2.4
00:35 1028 30.36 857 25.31 -15.1 4.8 72 -19 -2.3
00:40 1028 30.36 857 25.31 -15.1 4.7 72 -19.1 -2.3
00:45 1027 30.33 857 25.31 -15.1 4.7 72 -19.1 -2.3
00:50 1027 30.33 857 25.31 -15.3 4.5 73 -19.2 -2.5
00:55 1027 30.33 857 25.31 -15.3 4.4 74 -19 -2.3
01:00 1027 30.33 857 25.31 -15.3 4.5 74 -19 -2.2
01:05 1027 30.33 857 25.31 -15.2 4.6 74 -18.9 -2.1
01:10 1027 30.33 857 25.31 -15.1 4.9 72 -19 -2.2
01:15 1027 30.33 857 25.31 -15.1 4.9 72 -19 -2.1
01:20 1027 30.33 856 25.28 -15.1 4.9 72 -19 -2.1
01:25 1027 30.33 856 25.28 -15.1 4.8 72 -19 -2.2
01:30 1027 30.33 856 25.28 -15.2 4.7 72 -19.1 -2.5
01:35 1027 30.33 856 25.28 -15.3 4.4 73 -19.1 -2.3
01:40 1027 30.33 856 25.28 -15.2 4.7 73 -19 -2.2
01:45 1027 30.33 856 25.28 -15.2 4.7 72 -19.1 -2.4
01:50 1027 30.33 856 25.28 -15.3 4.5 72 -19.2 -2.5
01:55 1027 30.33 856 25.28 -15.4 4.3 74 -19.1 -2.4
02:00 1027 30.33 856 25.28 -15.3 4.4 74 -19 -2.2
02:05 1027 30.33 856 25.28 -15.4 4.4 73 -19.1 -2.4
02:10 1027 30.33 856 25.28 -15.4 4.2 74 -19.1 -2.4
02:15 1027 30.33 856 25.28 -15.4 4.2 73 -19.2 -2.5
02:20 1027 30.33 856 25.28 -15.6 4 74 -19.1 -2.5
02:25 1027 30.33 856 25.28 -15.5 4 74 -19.2 -2.5
02:30 1027 30.33 856 25.28 -15.5 4 74 -19.1 -2.5
02:35 1027 30.33 856 25.28 -15.5 4.1 74 -19.1 -2.4
02:40 1027 30.33 856 25.28 -15.5 4.1 74 -19.1 -2.3
02:45 1027 30.33 856 25.28 -15.5 4.1 74 -19.1 -2.4
02:50 1027 30.33 856 25.28 -15.5 4 75 -19.1 -2.4
02:55 1027 30.33 856 25.28 -15.6 4 75 -19.1 -2.3
03:00 1027 30.33 856 25.28 -15.6 3.9 75 -19.1 -2.4
03:05 1027 30.33 856 25.28 -15.8 3.6 76 -19.2 -2.5
03:10 1027 30.33 856 25.28 -16.3 2.7 77 -19.4 -2.8
03:15 1027 30.33 856 25.28 -16.5 2.3 78 -19.5 -3.1
03:20 1027 30.33 856 25.28 -16.7 1.9 78 -19.7 -3.5
03:25 1027 30.33 856 25.28 -17 1.3 79 -19.9 -3.9
03:30 1027 30.33 856 25.28 -17.3 0.9 79 -20 -4.1
03:35 1027 30.33 856 25.28 -17.3 0.8 79 -20.2 -4.3
03:40 1027 30.33 856 25.28 -17.4 0.6 79 -20.3 -4.5
03:45 1027 30.33 856 25.28 -17.5 0.5 80 -20.2 -4.3
03:50 1027 30.33 856 25.28 -17.5 0.5 79 -20.3 -4.6
03:55 1027 30.33 856 25.28 -17.8 0.1 80 -20.5 -4.8
04:00 1027 30.33 856 25.28 -17.8 -0.1 79 -20.7 -5.2
04:05 1027 30.33 856 25.28 -17.9 -0.2 78 -20.9 -5.6
04:10 1027 30.33 856 25.28 -18.2 -0.7 79 -21 -5.8
04:15 1027 30.33 856 25.28 -18.2 -0.8 78 -21.2 -6.2
04:20 1027 30.33 856 25.28 -18.3 -1 78 -21.2 -6.1
04:25 1027 30.33 856 25.28 -18.5 -1.3 78 -21.4 -6.5
04:30 1027 30.33 856 25.28 -18.5 -1.4 79 -21.3 -6.4
04:35 1027 30.33 856 25.28 -18.6 -1.4 81 -21.1 -5.9
04:40 1027 30.33 856 25.28 -18.6 -1.5 78 -21.6 -6.9
04:45 1027 30.33 856 25.28 -19 -2.1 78 -21.9 -7.4
04:50 1027 30.33 856 25.28 -18.9 -2.1 77 -22.1 -7.7
04:55 1027 30.33 856 25.28 -18.8 -1.9 79 -21.6 -6.9
05:00 1027 30.33 856 25.28 -18.7 -1.7 76 -21.9 -7.5
05:05 1027 30.33 856 25.28 -19.2 -2.5 76 -22.4 -8.4
05:10 1027 30.33 856 25.28 -19.6 -3.3 77 -22.7 -8.9
05:15 1026 30.3 856 25.28 -20 -4 76 -23.2 -9.8
05:20 1026 30.3 856 25.28 -20.2 -4.3 80 -22.8 -9
05:25 1026 30.3 856 25.28 -19.3 -2.8 78 -22.3 -8.1
05:30 1026 30.3 856 25.28 -19.3 -2.7 78 -22.2 -7.9
05:35 1026 30.3 856 25.28 -19 -2.2 80 -21.6 -6.8
05:40 1026 30.3 856 25.28 -18.6 -1.5 77 -21.7 -7.1
05:45 1026 30.3 856 25.28 -18.6 -1.4 76 -21.8 -7.3
05:50 1026 30.3 856 25.28 -18.8 -1.8 77 -21.9 -7.4
05:55 1026 30.3 856 25.28 -19.1 -2.4 77 -22.1 -7.8
06:00 1026 30.3 855 25.25 -19.1 -2.4 77 -22.3 -8.1
06:05 1026 30.3 855 25.25 -19.1 -2.4 77 -22.1 -7.8
06:10 1026 30.3 855 25.25 -19.1 -2.4 75 -22.5 -8.4
06:15 1026 30.3 855 25.25 -19.2 -2.6 75 -22.6 -8.7
06:20 1026 30.3 855 25.25 -19.3 -2.8 77 -22.5 -8.4
06:25 1026 30.3 855 25.25 -19.3 -2.7 77 -22.4 -8.3
06:30 1026 30.3 855 25.25 -18.7 -1.7 75 -22.1 -7.8
06:35 1026 30.3 855 25.25 -18.4 -1.1 74 -22 -7.7
06:40 1026 30.3 855 25.25 -18.4 -1.2 72 -22.2 -8
06:45 1026 30.3 855 25.25 -18.6 -1.4 73 -22.2 -8
06:50 1026 30.3 855 25.25 -18.6 -1.4 73 -22.3 -8.2
06:55 1026 30.3 855 25.25 -18.9 -1.9 72 -22.7 -8.9
07:00 1026 30.3 855 25.25 -19.1 -2.5 73 -22.8 -9
07:05 1026 30.3 855 25.25 -19.2 -2.6 73 -22.9 -9.2
07:10 1026 30.3 855 25.25 -19.1 -2.4 74 -22.7 -8.9
07:15 1026 30.3 855 25.25 -18.9 -2.1 73 -22.7 -8.8
07:20 1026 30.3 855 25.25 -19.1 -2.4 74 -22.7 -8.8
07:25 1026 30.3 855 25.25 -19.2 -2.5 75 -22.5 -8.5
07:30 1026 30.3 855 25.25 -19.2 -2.6 73 -22.9 -9.2
07:35 1026 30.3 855 25.25 -19.1 -2.3 73 -22.8 -9
07:40 1026 30.3 855 25.25 -19 -2.3 73 -22.8 -9.1
07:45 1026 30.3 855 25.25 -19.1 -2.3 72 -22.9 -9.1
07:50 1026 30.3 855 25.25 -18.8 -1.8 71 -22.9 -9.1
07:55 1026 30.3 855 25.25 -18.9 -2 71 -22.9 -9.2
08:00 1026 30.3 855 25.25 -19 -2.2 72 -22.9 -9.2
08:05 1026 30.3 855 25.25 -19.3 -2.7 73 -22.9 -9.3
08:10 1026 30.3 855 25.25 -19 -2.2 72 -22.8 -9.1
08:15 1026 30.3 855 25.25 -18.7 -1.6 70 -22.9 -9.2
08:20 1026 30.3 855 25.25 -18.6 -1.6 70 -22.9 -9.2
08:25 1026 30.3 855 25.25 -18.8 -1.8 70 -22.9 -9.3
08:30 1026 30.3 855 25.25 -19 -2.1 71 -23.1 -9.5
08:35 1026 30.3 855 25.25 -19.1 -2.4 72 -23 -9.4
08:40 1026 30.3 855 25.25 -19 -2.2 71 -23 -9.3
08:45 1026 30.3 855 25.25 -18.9 -2 70 -23 -9.4
08:50 1026 30.3 855 25.25 -19.1 -2.4 71 -23.1 -9.6
08:55 1026 30.3 855 25.25 -19.2 -2.6 71 -23.2 -9.8
09:00 1026 30.3 855 25.25 -19.3 -2.8 71 -23.3 -9.9
09:05 1026 30.3 855 25.25 -19.4 -2.9 72 -23.2 -9.8
09:10 1026 30.3 855 25.25 -19.6 -3.2 72 -23.5 -10.2
09:15 1026 30.3 855 25.25 -19.6 -3.3 73 -23.2 -9.8
09:20 1026 30.3 855 25.25 -19 -2.1 70 -23.1 -9.6
09:25 1026 30.3 855 25.25 -18.5 -1.3 69 -22.9 -9.3
09:30 1026 30.3 855 25.25 -18.6 -1.4 69 -23 -9.4
09:35 1026 30.3 855 25.25 -18.6 -1.5 68 -23.1 -9.6
09:40 1026 30.3 855 25.25 -18.4 -1.1 67 -23.1 -9.6
09:45 1026 30.3 855 25.25 -18.1 -0.5 65 -23.1 -9.5
09:50 1026 30.3 855 25.25 -17.8 0 67 -22.6 -8.6
09:55 1026 30.3 855 25.25 -17.8 -0.1 66 -22.7 -8.9
10:00 1026 30.3 855 25.25 -18 -0.4 66 -22.9 -9.2
10:05 1026 30.3 855 25.25 -18.2 -0.7 67 -22.9 -9.1
10:10 1026 30.3 855 25.25 -17.7 0.2 66 -22.7 -8.8
10:15 1026 30.3 855 25.25 -17.1 1.2 65 -22.3 -8.1
10:20 1026 30.3 855 25.25 -17.2 1 64 -22.4 -8.4
10:25 1026 30.3 855 25.25 -16.7 2 63 -22.2 -7.9
10:30 1026 30.3 855 25.25 -16.3 2.6 63 -21.9 -7.4
10:35 1026 30.3 855 25.25 -16.2 2.9 61 -22.1 -7.7
10:40 1026 30.3 855 25.25 -16.3 2.7 62 -22 -7.6
10:45 1026 30.3 855 25.25 -16 3.1 60 -22.1 -7.8
10:50 1026 30.3 855 25.25 -15.5 4.1 58 -22 -7.6
10:55 1026 30.3 855 25.25 -15.3 4.5 58 -21.8 -7.3
11:00 1026 30.3 855 25.25 -15.1 4.8 57 -21.8 -7.2
11:05 1026 30.3 855 25.25 -15.1 4.9 56 -21.9 -7.5
11:10 1026 30.3 855 25.25 -14.8 5.3 58 -21.5 -6.6
11:15 1026 30.3 855 25.25 -15 4.9 59 -21.4 -6.6
11:20 1026 30.3 855 25.25 -15.3 4.5 59 -21.6 -6.8
11:25 1026 30.3 855 25.25 -15.3 4.5 59 -21.7 -7.1
11:30 1026 30.3 855 25.25 -15 4.9 59 -21.4 -6.6
11:35 1026 30.3 855 25.25 -15.2 4.6 59 -21.5 -6.7
11:40 1026 30.3 855 25.25 -14.7 5.5 58 -21.3 -6.3
11:45 1026 30.3 855 25.25 -14.7 5.5 58 -21.3 -6.4
11:50 1025 30.27 855 25.25 -14.5 5.9 56 -21.5 -6.6
11:55 1025 30.27 855 25.25 -14.3 6.2 56 -21.3 -6.4
12:00 1025 30.27 854 25.22 -14.2 6.5 56 -21.2 -6.1
12:05 1025 30.27 854 25.22 -14.2 6.4 56 -21.3 -6.3
12:10 1025 30.27 854 25.22 -14.3 6.4 56 -21.2 -6.2
12:15 1025 30.27 854 25.22 -14 6.7 57 -20.9 -5.6
12:20 1025 30.27 854 25.22 -14 6.8 55 -21.1 -6
12:25 1025 30.27 854 25.22 -13.7 7.4 55 -21 -5.7
12:30 1025 30.27 854 25.22 -13.6 7.5 54 -21.1 -6
12:35 1025 30.27 854 25.22 -13.3 8.1 54 -20.7 -5.2
12:40 1025 30.27 854 25.22 -13.4 7.9 56 -20.5 -4.9
12:45 1025 30.27 854 25.22 -13.8 7.2 55 -21.1 -5.9
12:50 1024 30.24 854 25.22 -13.3 8.1 54 -20.7 -5.2
12:55 1024 30.24 854 25.22 -12.6 9.3 51 -20.8 -5.5
13:00 1024 30.24 853 25.19 -12.4 9.6 52 -20.4 -4.8
13:05 1024 30.24 853 25.19 -12.6 9.3 52 -20.6 -5
13:10 1024 30.24 853 25.19 -12.8 9 54 -20.2 -4.4
13:15 1024 30.24 853 25.19 -12.6 9.4 52 -20.5 -4.8
13:20 1024 30.24 853 25.19 -12.1 10.2 52 -20.2 -4.3
13:25 1024 30.24 853 25.19 -12.3 9.9 52 -20.2 -4.4
13:30 1024 30.24 853 25.19 -12.5 9.5 52 -20.4 -4.7
13:35 1024 30.24 853 25.19 -12.2 10 51 -20.4 -4.8
13:40 1024 30.24 853 25.19 -12 10.4 49 -20.7 -5.2
13:45 1024 30.24 853 25.19 -12.4 9.8 59 -18.9 -2
13:50 1024 30.24 853 25.19 -12.6 9.4 60 -18.8 -1.8
13:55 1024 30.24 853 25.19 -11.9 10.5 59 -18.4 -1.2
14:00 1024 30.24 853 25.19 -11.8 10.8 60 -18.2 -0.7
14:05 1023 30.21 853 25.19 -12.1 10.2 61 -18.2 -0.8
14:10 1023 30.21 853 25.19 -12 10.4 60 -18.3 -0.9
14:15 1023 30.21 852 25.16 -11.7 11 58 -18.4 -1
14:20 1023 30.21 852 25.16 -11.4 11.6 57 -18.3 -0.9
14:25 1023 30.21 852 25.16 -11.4 11.4 57 -18.3 -0.9
14:30 1023 30.21 852 25.16 -11.4 11.6 58 -18.1 -0.6
14:35 1023 30.21 852 25.16 -10.8 12.5 55 -18.2 -0.7
14:40 1023 30.21 852 25.16 -10.7 12.8 55 -18.1 -0.6
14:45 1023 30.21 852 25.16 -10.8 12.6 54 -18.3 -0.9
14:50 1023 30.21 852 25.16 -10.9 12.5 54 -18.4 -1.2
14:55 1023 30.21 852 25.16 -11.1 12.1 55 -18.5 -1.3
15:00 1023 30.21 852 25.16 -11.3 11.7 56 -18.5 -1.2
15:05 1023 30.21 852 25.16 -11.4 11.4 56 -18.5 -1.3
15:10 1022 30.18 852 25.16 -11.5 11.2 57 -18.4 -1.2
15:15 1022 30.18 852 25.16 -11.6 11.1 61 -17.8 0
15:20 1022 30.18 852 25.16 -11.9 10.7 61 -17.9 -0.1
15:25 1022 30.18 852 25.16 -11.4 11.4 59 -18 -0.5
15:30 1022 30.18 852 25.16 -11.3 11.7 57 -18.3 -0.9
15:35 1022 30.18 852 25.16 -10.9 12.5 56 -18.1 -0.6
15:40 1022 30.18 852 25.16 -10.6 12.9 54 -18.2 -0.7
15:45 1022 30.18 852 25.16 -10.8 12.5 55 -18.3 -0.9
15:50 1022 30.18 852 25.16 -10.9 12.4 55 -18.2 -0.8
15:55 1022 30.18 852 25.16 -10.9 12.4 56 -18.1 -0.6
16:00 1022 30.18 851 25.13 -11.7 11 55 -18.9 -2.1
16:05 1022 30.18 851 25.13 -12.3 9.9 54 -19.7 -3.4
16:10 1022 30.18 851 25.13 -12.2 10.1 56 -19.2 -2.6
16:15 1022 30.18 851 25.13 -12.6 9.4 56 -19.7 -3.4
16:20 1022 30.18 851 25.13 -13 8.6 56 -20 -4.1
16:25 1022 30.18 851 25.13 -13.2 8.2 57 -20 -4
16:30 1022 30.18 851 25.13 -13.5 7.7 58 -20.1 -4.1
16:35 1022 30.18 851 25.13 -13.8 7.1 58 -20.3 -4.6
16:40 1022 30.18 851 25.13 -13.9 6.9 58 -20.5 -4.9
16:45 1022 30.18 851 25.13 -14.1 6.7 59 -20.5 -4.8
16:50 1022 30.18 851 25.13 -14.2 6.4 59 -20.6 -5.1
16:55 1021 30.15 851 25.13 -14.4 6.1 60 -20.6 -5.1
17:00 1022 30.18 851 25.13 -14.6 5.8 60 -20.7 -5.2
17:05 1022 30.18 851 25.13 -14.6 5.6 61 -20.5 -5
17:10 1021 30.15 851 25.13 -14.7 5.5 61 -20.7 -5.2
17:15 1021 30.15 851 25.13 -14.8 5.3 61 -20.7 -5.3
17:20 1021 30.15 850 25.1 -15 5.1 62 -20.6 -5.1
17:25 1021 30.15 850 25.1 -15 4.9 63 -20.6 -5.1
17:30 1021 30.15 850 25.1 -15 4.9 63 -20.7 -5.2
17:35 1021 30.15 850 25.1 -15 5.1 63 -20.4 -4.8
17:40 1021 30.15 850 25.1 -15 5 64 -20.4 -4.8
17:45 1021 30.15 850 25.1 -15 5 64 -20.4 -4.7
17:50 1021 30.15 850 25.1 -15.1 4.9 64 -20.4 -4.7
17:55 1021 30.15 850 25.1 -15.1 4.8 65 -20.3 -4.5
18:00 1021 30.15 850 25.1 -15.1 4.7 65 -20.3 -4.6
18:05 1021 30.15 850 25.1 -15.2 4.6 65 -20.4 -4.7
18:10 1021 30.15 850 25.1 -15.2 4.6 66 -20.3 -4.6
18:15 1021 30.15 850 25.1 -15.3 4.5 65 -20.4 -4.7
18:20 1021 30.15 850 25.1 -15.3 4.4 66 -20.3 -4.6
18:25 1021 30.15 850 25.1 -15.5 4.1 66 -20.5 -4.9
18:30 1021 30.15 850 25.1 -15.5 4.1 65 -20.6 -5.1
18:35 1021 30.15 850 25.1 -15.5 4.2 64 -20.8 -5.4
18:40 1021 30.15 850 25.1 -15.5 4.1 64 -20.9 -5.6
18:45 1021 30.15 850 25.1 -15.5 4.1 63 -21 -5.7
18:50 1021 30.15 850 25.1 -15.6 4 64 -21 -5.8
18:55 1021 30.15 850 25.1 -15.7 3.8 64 -21.1 -5.9
19:00 1021 30.15 850 25.1 -15.7 3.8 64 -21 -5.9
19:05 1021 30.15 850 25.1 -15.5 4 63 -21.1 -5.9
19:10 1021 30.15 850 25.1 -15.5 4.1 63 -21.1 -6
19:15 1021 30.15 850 25.1 -15.5 4 63 -21.1 -6
19:20 1021 30.15 850 25.1 -15.6 4 63 -21.1 -6
19:25 1021 30.15 850 25.1 -15.7 3.8 63 -21.1 -6
19:30 1021 30.15 850 25.1 -15.9 3.5 66 -20.9 -5.6
19:35 1021 30.15 850 25.1 -16.1 3 67 -21 -5.7
19:40 1021 30.15 850 25.1 -16.4 2.4 68 -21 -5.9
19:45 1021 30.15 850 25.1 -16.5 2.3 68 -21.1 -5.9
19:50 1021 30.15 850 25.1 -16.5 2.4 68 -21.1 -5.9
19:55 1021 30.15 850 25.1 -16.6 2.2 68 -21.1 -6.1
20:00 1021 30.15 850 25.1 -16.6 2.1 69 -21.1 -6
20:05 1021 30.15 850 25.1 -16.7 2 68 -21.2 -6.1
20:10 1021 30.15 850 25.1 -16.8 1.8 69 -21.2 -6.1
20:15 1021 30.15 850 25.1 -16.9 1.6 70 -21.1 -6.1
20:20 1021 30.15 850 25.1 -17 1.5 71 -21.1 -5.9
20:25 1020 30.12 850 25.1 -17 1.3 72 -21 -5.9
20:30 1020 30.12 850 25.1 -17.2 1.1 72 -21 -5.8
20:35 1020 30.12 849 25.07 -17.1 1.2 73 -20.8 -5.4
20:40 1020 30.12 849 25.07 -17.2 1.1 74 -20.8 -5.4
20:45 1020 30.12 849 25.07 -17.2 1.1 74 -20.8 -5.5
20:50 1020 30.12 849 25.07 -17.2 1.1 75 -20.6 -5.1
20:55 1020 30.12 849 25.07 -17.1 1.3 75 -20.6 -5
21:00 1020 30.12 849 25.07 -17 1.5 74 -20.6 -5
21:05 1020 30.12 849 25.07 -16.9 1.6 74 -20.5 -4.9
21:10 1020 30.12 849 25.07 -16.8 1.7 73 -20.6 -5
21:15 1020 30.12 849 25.07 -16.7 1.9 74 -20.4 -4.7
21:20 1020 30.12 849 25.07 -16.7 2 73 -20.4 -4.8
21:25 1020 30.12 849 25.07 -16.7 2 73 -20.5 -4.9
21:30 1020 30.12 849 25.07 -16.6 2.2 73 -20.4 -4.6
21:35 1020 30.12 849 25.07 -16.5 2.4 72 -20.4 -4.7
21:40 1020 30.12 849 25.07 -16.4 2.5 72 -20.4 -4.7
21:45 1020 30.12 849 25.07 -16.4 2.5 71 -20.4 -4.8
21:50 1020 30.12 849 25.07 -16.3 2.7 71 -20.4 -4.7
21:55 1020 30.12 849 25.07 -16.2 2.8 70 -20.4 -4.8
22:00 1020 30.12 849 25.07 -16.2 2.8 70 -20.5 -4.8
22:05 1020 30.12 849 25.07 -16.3 2.8 70 -20.6 -5.1
22:10 1020 30.12 849 25.07 -16.2 2.8 70 -20.5 -4.9
22:15 1020 30.12 849 25.07 -16.2 2.9 70 -20.5 -4.9
22:20 1020 30.12 849 25.07 -16.2 2.8 70 -20.6 -5
22:25 1020 30.12 849 25.07 -16.2 2.9 70 -20.5 -4.8
22:30 1020 30.12 849 25.07 -16.2 2.9 69 -20.5 -4.9
22:35 1020 30.12 849 25.07 -16.1 3 69 -20.5 -5
22:40 1020 30.12 850 25.1 -16 3.1 69 -20.4 -4.7
22:45 1020 30.12 850 25.1 -16 3.3 69 -20.5 -4.9
22:50 1020 30.12 850 25.1 -16 3.1 70 -20.4 -4.7
22:55 1020 30.12 849 25.07 -16 3.1 70 -20.3 -4.6
23:00 1020 30.12 849 25.07 -16.2 2.9 71 -20.3 -4.5
23:05 1020 30.12 849 25.07 -16.3 2.7 72 -20.2 -4.4
23:10 1020 30.12 849 25.07 -16.4 2.4 74 -20.1 -4.1
23:15 1020 30.12 849 25.07 -16.5 2.3 75 -19.9 -3.8
23:20 1019 30.09 849 25.07 -16.6 2.2 75 -20 -3.9
23:25 1019 30.09 848 25.04 -16.5 2.2 75 -20 -4
23:30 1019 30.09 849 25.07 -16.5 2.3 74 -20.2 -4.3
23:35 1019 30.09 849 25.07 -16.4 2.4 71 -20.5 -5
23:40 1019 30.09 849 25.07 -16.4 2.5 71 -20.5 -4.8
23:45 1019 30.09 849 25.07 -16.3 2.7 71 -20.4 -4.8
23:50 1019 30.09 849 25.07 -16.3 2.8 71 -20.4 -4.8
23:55 1019 30.09 849 25.07 -16.3 2.8 69 -20.7 -5.2
24:00 1019 30.09 849 25.07 -16.3 2.7 71 -20.4 -4.7